createdAt,value
2018-09-23T00:01:38.269Z,10.30
2018-09-23T00:04:05.961Z,10.40
2018-09-23T00:06:33.541Z,10.30
2018-09-23T00:09:01.149Z,10.40
2018-09-23T00:11:28.807Z,10.40
2018-09-23T00:13:56.432Z,10.30
2018-09-23T00:16:24.033Z,10.30
2018-09-23T00:19:05.312Z,10.20
2018-09-23T00:21:33.041Z,10.40
2018-09-23T00:24:00.604Z,10.40
2018-09-23T00:26:28.198Z,10.30
2018-09-23T00:28:55.798Z,10.40
2018-09-23T00:31:23.384Z,10.40
2018-09-23T00:33:51.007Z,10.40
2018-09-23T00:36:18.734Z,10.30
2018-09-23T00:38:46.381Z,10.30
2018-09-23T00:41:13.990Z,10.30
2018-09-23T00:43:41.589Z,10.30
2018-09-23T00:46:09.148Z,10.30
2018-09-23T00:48:48.614Z,10.30
2018-09-23T00:51:16.175Z,10.30
2018-09-23T00:53:43.821Z,10.30
2018-09-23T00:56:11.441Z,10.30
2018-09-23T00:58:39.005Z,10.20
2018-09-23T01:01:06.697Z,10.30
2018-09-23T01:03:36.300Z,10.30
2018-09-23T01:06:03.893Z,10.30
2018-09-23T01:08:31.509Z,10.30
2018-09-23T01:10:59.104Z,10.30
2018-09-23T01:13:26.719Z,10.30
2018-09-23T01:15:54.313Z,10.30
2018-09-23T01:18:21.901Z,10.30
2018-09-23T01:20:49.522Z,10.40
2018-09-23T01:23:17.088Z,10.40
2018-09-23T01:25:44.697Z,10.40
2018-09-23T01:28:12.325Z,10.40
2018-09-23T01:30:39.933Z,10.40
2018-09-23T01:33:07.489Z,10.40
2018-09-23T01:35:35.121Z,10.40
2018-09-23T01:38:02.724Z,10.40
2018-09-23T01:40:30.292Z,10.40
2018-09-23T01:42:57.878Z,10.40
2018-09-23T01:45:25.430Z,10.40
2018-09-23T01:47:53.032Z,10.40
2018-09-23T01:50:20.611Z,10.40
2018-09-23T01:52:48.217Z,10.40
2018-09-23T01:55:15.760Z,10.40
2018-09-23T01:57:43.346Z,10.40
2018-09-23T02:00:10.981Z,10.40
2018-09-23T02:02:38.520Z,10.40
2018-09-23T02:05:06.160Z,10.40
2018-09-23T02:07:33.718Z,10.40
2018-09-23T02:10:01.294Z,10.50
2018-09-23T02:12:28.847Z,10.40
2018-09-23T02:14:56.442Z,10.50
2018-09-23T02:17:28.056Z,10.40
2018-09-23T02:19:56.661Z,10.50
2018-09-23T02:22:24.314Z,10.50
2018-09-23T02:24:51.910Z,10.40
2018-09-23T02:27:19.498Z,10.50
2018-09-23T02:29:47.057Z,10.50
2018-09-23T02:32:14.717Z,10.50
2018-09-23T02:34:42.300Z,10.50
2018-09-23T02:37:09.997Z,10.50
2018-09-23T02:39:37.594Z,10.50
2018-09-23T02:42:05.313Z,10.50
2018-09-23T02:44:32.902Z,10.60
2018-09-23T02:47:00.494Z,10.60
2018-09-23T02:49:34.799Z,10.60
2018-09-23T02:52:02.357Z,10.60
2018-09-23T02:54:29.904Z,10.50
2018-09-23T02:56:57.441Z,10.60
2018-09-23T02:59:25.021Z,10.60
2018-09-23T03:01:52.684Z,10.60
2018-09-23T03:04:20.248Z,10.60
2018-09-23T03:06:47.829Z,10.60
2018-09-23T03:09:15.431Z,10.60
2018-09-23T03:11:42.993Z,10.60
2018-09-23T03:14:10.554Z,10.60
2018-09-23T03:16:38.461Z,10.60
2018-09-23T03:19:06.097Z,10.60
2018-09-23T03:21:33.668Z,10.60
2018-09-23T03:24:01.249Z,10.60
2018-09-23T03:26:29.022Z,10.60
2018-09-23T03:28:56.597Z,10.70
2018-09-23T03:31:24.197Z,10.60
2018-09-23T03:33:51.772Z,10.60
2018-09-23T03:36:19.313Z,10.60
2018-09-23T03:38:46.954Z,10.70
2018-09-23T03:41:14.598Z,10.70
2018-09-23T03:43:42.152Z,10.70
2018-09-23T03:46:09.760Z,10.70
2018-09-23T03:48:37.363Z,10.70
2018-09-23T03:51:05.598Z,10.70
2018-09-23T03:53:33.166Z,10.70
2018-09-23T03:56:00.684Z,10.70
2018-09-23T03:58:28.349Z,10.70
2018-09-23T04:00:55.977Z,10.70
2018-09-23T04:03:24.132Z,10.70
2018-09-23T04:05:52.032Z,10.70
2018-09-23T04:08:20.233Z,10.70
2018-09-23T04:19:27.158Z,10.70
2018-09-23T04:21:54.750Z,10.70
2018-09-23T04:24:22.304Z,10.70
2018-09-23T04:26:49.882Z,10.70
2018-09-23T04:29:17.448Z,10.70
2018-09-23T04:31:45.001Z,10.70
2018-09-23T04:34:12.634Z,10.70
2018-09-23T04:36:40.193Z,10.70
2018-09-23T04:39:09.181Z,10.70
2018-09-23T04:41:37.021Z,10.80
2018-09-23T04:44:04.649Z,10.80
2018-09-23T04:46:32.261Z,10.80
2018-09-23T04:48:59.843Z,10.80
2018-09-23T04:51:27.427Z,10.70
2018-09-23T04:53:54.989Z,10.80
2018-09-23T04:56:22.529Z,10.80
2018-09-23T04:58:50.184Z,10.80
2018-09-23T05:01:17.801Z,10.80
2018-09-23T05:03:45.405Z,10.80
2018-09-23T05:06:12.945Z,10.70
2018-09-23T05:08:40.557Z,10.80
2018-09-23T05:11:08.225Z,10.70
2018-09-23T05:13:35.838Z,10.80
2018-09-23T05:16:03.455Z,10.80
2018-09-23T05:18:31.020Z,10.80
2018-09-23T05:20:58.600Z,10.80
2018-09-23T05:23:26.157Z,10.80
2018-09-23T05:25:53.721Z,10.80
2018-09-23T05:28:21.324Z,10.80
2018-09-23T05:30:48.915Z,10.80
2018-09-23T05:33:16.448Z,10.80
2018-09-23T05:35:44.077Z,10.80
2018-09-23T05:38:11.657Z,10.80
2018-09-23T05:40:39.241Z,10.80
2018-09-23T05:43:06.793Z,10.80
2018-09-23T05:45:34.590Z,10.80
2018-09-23T05:48:02.129Z,10.80
2018-09-23T05:50:29.723Z,10.80
2018-09-23T05:52:57.320Z,10.80
2018-09-23T05:55:24.905Z,10.80
2018-09-23T05:57:52.485Z,10.80
2018-09-23T06:00:20.189Z,10.80
2018-09-23T06:02:47.814Z,10.80
2018-09-23T06:05:15.375Z,10.80
2018-09-23T06:07:42.946Z,10.80
2018-09-23T06:10:10.568Z,10.80
2018-09-23T06:12:38.266Z,10.80
2018-09-23T06:15:05.850Z,10.90
2018-09-23T06:17:33.520Z,10.90
2018-09-23T06:20:01.085Z,10.90
2018-09-23T06:22:28.641Z,10.90
2018-09-23T06:24:56.276Z,10.90
2018-09-23T06:27:23.854Z,10.90
2018-09-23T06:29:51.472Z,10.90
2018-09-23T06:32:19.159Z,10.90
2018-09-23T06:34:46.761Z,11.00
2018-09-23T06:37:14.746Z,11.00
2018-09-23T06:39:42.338Z,11.00
2018-09-23T06:42:10.197Z,11.00
2018-09-23T06:44:37.793Z,11.00
2018-09-23T06:47:05.597Z,11.00
2018-09-23T06:49:33.213Z,11.00
2018-09-23T06:52:00.932Z,11.00
2018-09-23T06:54:28.705Z,11.10
2018-09-23T06:56:56.397Z,11.10
2018-09-23T06:59:24.073Z,11.10
2018-09-23T07:01:51.655Z,11.20
2018-09-23T07:04:19.324Z,11.20
2018-09-23T07:06:46.886Z,11.10
2018-09-23T07:09:15.546Z,11.20
2018-09-23T07:11:43.169Z,11.20
2018-09-23T07:14:10.885Z,11.20
2018-09-23T07:16:38.624Z,11.20
2018-09-23T07:19:06.380Z,11.30
2018-09-23T07:21:33.957Z,11.30
2018-09-23T07:24:02.307Z,11.30
2018-09-23T07:26:29.901Z,11.20
2018-09-23T07:28:57.518Z,11.30
2018-09-23T07:31:26.106Z,11.40
2018-09-23T07:33:53.749Z,11.40
2018-09-23T13:21:39.327Z,10.80
2018-09-23T13:24:07.099Z,10.70
2018-09-23T13:29:02.830Z,10.70
2018-09-23T13:31:30.363Z,10.70
2018-09-23T13:33:58.087Z,10.70
2018-09-23T13:36:25.697Z,10.80
2018-09-23T13:38:53.360Z,10.80
2018-09-23T13:41:21.650Z,10.80
2018-09-23T13:43:49.272Z,10.80
2018-09-23T13:46:16.974Z,10.80
2018-09-23T13:48:45.474Z,10.80
2018-09-23T13:51:13.173Z,10.80
2018-09-23T13:53:41.762Z,10.80
2018-09-23T13:56:09.430Z,10.70
2018-09-23T13:58:37.071Z,10.70
2018-09-23T14:01:04.728Z,10.70
2018-09-23T14:03:32.501Z,10.60
2018-09-23T14:06:01.100Z,10.60
2018-09-23T14:08:28.808Z,10.60
2018-09-23T14:10:57.303Z,10.50
2018-09-23T14:13:25.000Z,10.50
2018-09-23T14:15:52.962Z,10.50
2018-09-23T14:18:20.576Z,10.50
2018-09-23T14:20:48.176Z,10.50
2018-09-23T14:23:15.870Z,10.50
2018-09-23T14:25:43.574Z,10.50
2018-09-23T14:28:12.542Z,10.50
2018-09-23T14:30:40.768Z,10.40
2018-09-23T14:33:08.466Z,10.40
2018-09-23T14:35:36.132Z,10.40
2018-09-23T14:38:04.113Z,10.40
2018-09-23T14:40:32.431Z,10.40
2018-09-23T14:43:00.070Z,10.40
2018-09-23T14:45:40.981Z,10.30
2018-09-23T14:48:09.026Z,10.40
2018-09-23T14:50:36.692Z,10.40
2018-09-23T14:53:04.349Z,10.40
2018-09-23T14:55:32.065Z,10.40
2018-09-23T14:57:59.665Z,10.40
2018-09-23T15:00:28.168Z,10.40
2018-09-23T15:02:55.925Z,10.40
2018-09-23T15:05:23.973Z,10.40
2018-09-23T15:07:51.583Z,10.40
2018-09-23T15:10:19.213Z,10.50
2018-09-23T15:12:46.806Z,10.50
2018-09-23T15:15:14.568Z,10.40
2018-09-23T15:17:42.367Z,10.40
2018-09-23T15:20:10.273Z,10.40
2018-09-23T15:22:37.877Z,10.40
2018-09-23T15:25:05.654Z,10.40
2018-09-23T15:27:33.458Z,10.40
2018-09-23T15:30:01.077Z,10.30
2018-09-23T15:32:28.818Z,10.30
2018-09-23T15:34:56.523Z,10.30
2018-09-23T15:37:24.389Z,10.30
2018-09-23T15:39:52.057Z,10.20
2018-09-23T15:42:19.890Z,10.10
2018-09-23T15:44:47.526Z,10.10
2018-09-23T15:47:16.050Z,10.00
2018-09-23T15:49:43.972Z,10.00
2018-09-23T15:52:11.697Z,9.90
2018-09-23T15:54:39.258Z,9.80
2018-09-23T15:57:07.096Z,9.70
2018-09-23T15:59:36.098Z,9.60
2018-09-23T16:02:04.731Z,9.60
2018-09-23T16:04:32.458Z,9.70
2018-09-23T16:07:00.084Z,9.60
2018-09-23T16:09:27.980Z,9.50
2018-09-23T16:11:55.602Z,9.50
2018-09-23T16:14:24.115Z,9.40
2018-09-23T16:16:51.798Z,9.40
2018-09-23T16:19:23.116Z,9.30
2018-09-23T16:21:51.136Z,9.30
2018-09-23T16:24:18.791Z,9.30
2018-09-23T16:26:46.370Z,9.20
2018-09-23T16:29:14.118Z,9.20
2018-09-23T16:31:41.757Z,9.20
2018-09-23T16:34:09.402Z,9.20
2018-09-23T16:36:37.229Z,9.10
2018-09-23T16:39:19.281Z,9.10
2018-09-23T16:41:52.473Z,9.10
2018-09-23T16:44:20.133Z,9.10
2018-09-23T16:46:47.820Z,9.00
2018-09-23T16:49:15.699Z,9.00
2018-09-23T16:51:43.477Z,9.00
2018-09-23T16:54:11.168Z,8.90
2018-09-23T16:56:38.834Z,8.90
2018-09-23T16:59:06.713Z,8.90
2018-09-23T17:01:34.644Z,8.90
2018-09-23T17:04:02.290Z,8.90
2018-09-23T17:06:29.921Z,8.90
2018-09-23T17:08:57.581Z,8.90
2018-09-23T17:11:25.256Z,8.90
2018-09-23T17:13:52.951Z,9.00
2018-09-23T17:16:20.672Z,9.00
2018-09-23T17:18:48.319Z,9.00
2018-09-23T17:21:15.962Z,9.00
2018-09-23T17:23:43.680Z,9.10
2018-09-23T17:26:20.451Z,9.10
2018-09-23T17:28:48.126Z,9.00
2018-09-23T17:31:15.699Z,9.10
2018-09-23T17:33:43.309Z,9.10
2018-09-23T17:36:10.961Z,9.10
2018-09-23T17:38:38.829Z,9.10
2018-09-23T17:41:06.892Z,9.10
2018-09-23T17:43:34.677Z,9.00
2018-09-23T17:46:02.333Z,9.00
2018-09-23T17:48:30.056Z,9.00
2018-09-23T17:50:57.677Z,9.00
2018-09-23T17:53:25.794Z,9.10
2018-09-23T17:55:53.391Z,9.10
2018-09-23T17:58:21.329Z,9.00
2018-09-23T18:00:49.053Z,9.00
2018-09-23T18:03:20.615Z,9.10
2018-09-23T18:05:48.284Z,9.10
2018-09-23T18:08:16.041Z,9.10
2018-09-23T18:10:43.786Z,9.10
2018-09-23T18:13:11.597Z,9.10
2018-09-23T18:15:39.393Z,9.10
2018-09-23T18:18:07.227Z,9.10
2018-09-23T18:20:34.984Z,9.10
2018-09-23T18:23:02.598Z,9.10
2018-09-23T18:25:30.525Z,9.20
2018-09-23T18:27:58.454Z,9.20
2018-09-23T18:30:26.137Z,9.20
2018-09-23T18:32:53.944Z,9.20
2018-09-23T18:35:21.843Z,9.10
2018-09-23T18:37:49.482Z,9.10
2018-09-23T18:40:17.360Z,9.10
2018-09-23T18:42:45.171Z,9.10
2018-09-23T18:45:13.066Z,9.10
2018-09-23T18:47:40.816Z,9.10
2018-09-23T18:50:08.686Z,9.10
2018-09-23T18:52:36.355Z,9.00
2018-09-23T18:55:09.906Z,9.00
2018-09-23T18:57:37.550Z,9.00
2018-09-23T19:00:05.760Z,9.00
2018-09-23T19:02:33.538Z,9.00
2018-09-23T19:05:01.382Z,9.00
2018-09-23T19:07:29.000Z,8.90
2018-09-23T19:09:56.823Z,8.90
2018-09-23T19:12:24.630Z,8.90
2018-09-23T19:14:52.750Z,8.90
2018-09-23T19:17:20.641Z,8.90
2018-09-23T19:19:54.235Z,8.90
2018-09-23T19:22:27.609Z,8.90
2018-09-23T19:24:55.266Z,8.80
2018-09-23T19:27:23.260Z,8.80
2018-09-23T19:29:51.114Z,8.80
2018-09-23T19:32:22.691Z,8.80
2018-09-23T19:34:51.097Z,8.80
2018-09-23T19:37:18.798Z,8.80
2018-09-23T19:39:46.538Z,8.80
2018-09-23T19:42:14.254Z,8.80
2018-09-23T19:44:44.386Z,8.70
2018-09-23T19:47:14.040Z,8.80
2018-09-23T19:49:41.653Z,8.80
2018-09-23T19:52:09.323Z,8.80
2018-09-23T19:54:36.994Z,8.80
2018-09-23T19:57:04.748Z,8.80
2018-09-23T19:59:32.339Z,8.80
2018-09-23T20:02:11.065Z,8.80
2018-09-23T20:07:41.640Z,8.80
2018-09-23T20:10:10.821Z,8.80
2018-09-23T20:12:39.428Z,8.80
2018-09-23T20:15:44.970Z,8.80
2018-09-23T20:18:41.662Z,8.80
2018-09-23T20:21:09.358Z,8.80
2018-09-23T20:23:37.337Z,8.80
2018-09-23T20:26:05.386Z,8.80
2018-09-23T20:28:33.099Z,8.80
2018-09-23T20:31:00.696Z,8.80
2018-09-23T20:33:28.291Z,8.80
2018-09-23T20:35:55.919Z,8.80
2018-09-23T20:38:23.601Z,8.70
2018-09-23T20:40:51.178Z,8.70
2018-09-23T20:43:18.808Z,8.70
2018-09-23T20:45:46.474Z,8.70
2018-09-23T20:48:14.073Z,8.70
2018-09-23T20:50:41.639Z,8.60
2018-09-23T20:53:09.279Z,8.60
2018-09-23T20:55:36.891Z,8.60
2018-09-23T20:58:05.135Z,8.60
2018-09-23T21:00:33.014Z,8.60
2018-09-23T21:03:00.618Z,8.50
2018-09-23T21:05:28.425Z,8.50
2018-09-23T21:07:56.046Z,8.50
2018-09-23T21:10:23.820Z,8.50
2018-09-23T21:12:51.385Z,8.50
2018-09-23T21:15:19.012Z,8.50
2018-09-23T21:17:46.694Z,8.50
2018-09-23T21:20:14.327Z,8.50
2018-09-23T21:22:41.937Z,8.50
2018-09-23T21:25:10.369Z,8.60
2018-09-23T21:27:38.015Z,8.60
2018-09-23T21:30:05.662Z,8.60
2018-09-23T21:32:33.482Z,8.60
2018-09-23T21:35:01.151Z,8.50
2018-09-23T21:37:28.786Z,8.40
2018-09-23T21:39:56.407Z,8.40
2018-09-23T21:42:24.144Z,8.30
2018-09-23T21:44:51.738Z,8.20
2018-09-23T21:47:19.309Z,8.20
2018-09-23T21:49:46.896Z,8.10
2018-09-23T21:52:16.734Z,8.10
2018-09-23T21:54:44.352Z,8.10
2018-09-23T21:57:11.950Z,8.10
2018-09-23T21:59:40.025Z,8.10
2018-09-23T22:02:07.669Z,8.10
2018-09-23T22:04:35.293Z,8.10
2018-09-23T22:07:02.910Z,8.10
2018-09-23T22:09:37.283Z,8.10
2018-09-23T22:12:05.069Z,8.10
2018-09-23T22:14:32.710Z,8.10
2018-09-23T22:17:00.268Z,8.00
2018-09-23T22:19:27.894Z,8.00
2018-09-23T22:21:55.482Z,8.00
2018-09-23T22:24:23.056Z,8.00
2018-09-23T22:26:50.710Z,8.00
2018-09-23T22:29:18.403Z,7.90
2018-09-23T22:31:46.164Z,7.90
2018-09-23T22:34:13.801Z,7.90
2018-09-23T22:36:41.453Z,7.90
2018-09-23T22:39:09.081Z,7.90
2018-09-23T22:41:36.673Z,7.80
2018-09-23T22:44:04.274Z,7.80
2018-09-23T22:46:40.266Z,7.80
2018-09-23T22:49:07.874Z,7.90
2018-09-23T22:51:35.481Z,7.90
2018-09-23T22:54:03.065Z,7.80
2018-09-23T22:56:30.728Z,7.80
2018-09-23T22:59:10.881Z,7.80
2018-09-23T23:01:38.695Z,7.80
2018-09-23T23:04:06.281Z,7.80
2018-09-23T23:06:33.869Z,7.70
2018-09-23T23:09:01.450Z,7.70
2018-09-23T23:11:29.034Z,7.70
2018-09-23T23:13:56.570Z,7.70
2018-09-23T23:16:24.146Z,7.70
2018-09-23T23:18:51.967Z,7.60
2018-09-23T23:21:21.638Z,7.60
2018-09-23T23:23:49.210Z,7.50
2018-09-23T23:26:16.759Z,7.60
2018-09-23T23:28:44.378Z,7.60
2018-09-23T23:31:11.984Z,7.50
2018-09-23T23:33:39.569Z,7.50
2018-09-23T23:36:07.145Z,7.50
2018-09-23T23:38:34.704Z,7.50
2018-09-23T23:41:02.302Z,7.50
2018-09-23T23:43:29.876Z,7.50
2018-09-23T23:45:57.518Z,7.40
2018-09-23T23:48:25.050Z,7.40
2018-09-23T23:50:52.626Z,7.40
2018-09-23T23:53:20.211Z,7.30
2018-09-23T23:55:47.778Z,7.30
2018-09-23T23:58:15.413Z,7.30
